sensor_id;sensor_type;location;lat;lon;timestamp;temperature;humidity
40756;DHT22;26461;45.630;9.418;2023-05-07T00:02:43;22.10;93.40
40756;DHT22;26461;45.630;9.418;2023-05-07T00:05:49;22.10;93.00
40756;DHT22;26461;45.630;9.418;2023-05-07T00:09:00;22.10;92.70
40756;DHT22;26461;45.630;9.418;2023-05-07T00:12:10;22.10;92.50
40756;DHT22;26461;45.630;9.418;2023-05-07T00:15:15;22.10;92.30
40756;DHT22;26461;45.630;9.418;2023-05-07T00:18:26;22.00;92.00
40756;DHT22;26461;45.630;9.418;2023-05-07T00:21:36;22.00;91.50
40756;DHT22;26461;45.630;9.418;2023-05-07T00:24:41;22.00;91.50
40756;DHT22;26461;45.630;9.418;2023-05-07T00:27:47;22.00;91.50
40756;DHT22;26461;45.630;9.418;2023-05-07T00:30:52;21.90;91.60
40756;DHT22;26461;45.630;9.418;2023-05-07T00:33:58;21.90;91.50
40756;DHT22;26461;45.630;9.418;2023-05-07T00:37:04;21.80;91.40
40756;DHT22;26461;45.630;9.418;2023-05-07T00:40:09;21.70;91.40
40756;DHT22;26461;45.630;9.418;2023-05-07T00:43:15;21.70;91.50
40756;DHT22;26461;45.630;9.418;2023-05-07T00:46:26;21.60;92.00
40756;DHT22;26461;45.630;9.418;2023-05-07T00:49:44;21.60;91.80
40756;DHT22;26461;45.630;9.418;2023-05-07T00:52:55;21.50;91.80
40756;DHT22;26461;45.630;9.418;2023-05-07T00:56:01;21.50;91.80
40756;DHT22;26461;45.630;9.418;2023-05-07T00:59:13;21.40;91.80
40756;DHT22;26461;45.630;9.418;2023-05-07T01:02:23;21.30;91.70
40756;DHT22;26461;45.630;9.418;2023-05-07T01:05:29;21.30;91.60
40756;DHT22;26461;45.630;9.418;2023-05-07T01:08:41;21.30;91.30
40756;DHT22;26461;45.630;9.418;2023-05-07T01:11:49;21.20;91.70
40756;DHT22;26461;45.630;9.418;2023-05-07T01:15:03;21.10;91.40
40756;DHT22;26461;45.630;9.418;2023-05-07T01:18:14;21.00;91.40
40756;DHT22;26461;45.630;9.418;2023-05-07T01:21:26;20.90;91.80
40756;DHT22;26461;45.630;9.418;2023-05-07T01:24:38;20.90;92.40
40756;DHT22;26461;45.630;9.418;2023-05-07T01:27:45;20.90;92.90
40756;DHT22;26461;45.630;9.418;2023-05-07T01:31:01;20.80;93.40
40756;DHT22;26461;45.630;9.418;2023-05-07T01:34:13;20.80;93.90
40756;DHT22;26461;45.630;9.418;2023-05-07T01:37:25;20.70;93.80
40756;DHT22;26461;45.630;9.418;2023-05-07T01:40:36;20.60;94.20
40756;DHT22;26461;45.630;9.418;2023-05-07T01:43:42;20.50;94.30
40756;DHT22;26461;45.630;9.418;2023-05-07T01:46:53;20.40;94.60
40756;DHT22;26461;45.630;9.418;2023-05-07T01:50:01;20.40;94.80
40756;DHT22;26461;45.630;9.418;2023-05-07T01:53:11;20.40;95.20
40756;DHT22;26461;45.630;9.418;2023-05-07T01:56:22;20.40;95.40
40756;DHT22;26461;45.630;9.418;2023-05-07T01:59:28;20.40;95.80
40756;DHT22;26461;45.630;9.418;2023-05-07T02:02:38;20.40;96.00
40756;DHT22;26461;45.630;9.418;2023-05-07T02:06:00;20.30;96.80
40756;DHT22;26461;45.630;9.418;2023-05-07T02:09:13;20.30;96.70
40756;DHT22;26461;45.630;9.418;2023-05-07T02:12:23;20.20;96.70
40756;DHT22;26461;45.630;9.418;2023-05-07T02:15:28;20.20;96.80
40756;DHT22;26461;45.630;9.418;2023-05-07T02:18:35;20.20;96.90
40756;DHT22;26461;45.630;9.418;2023-05-07T02:21:41;20.20;97.00
40756;DHT22;26461;45.630;9.418;2023-05-07T02:24:52;20.20;97.10
40756;DHT22;26461;45.630;9.418;2023-05-07T02:28:02;20.10;97.20
40756;DHT22;26461;45.630;9.418;2023-05-07T02:31:26;20.10;97.30
40756;DHT22;26461;45.630;9.418;2023-05-07T02:34:37;20.10;97.40
40756;DHT22;26461;45.630;9.418;2023-05-07T02:37:42;20.00;97.50
40756;DHT22;26461;45.630;9.418;2023-05-07T02:40:53;20.00;97.40
40756;DHT22;26461;45.630;9.418;2023-05-07T02:44:04;20.00;97.40
40756;DHT22;26461;45.630;9.418;2023-05-07T02:47:16;20.00;97.70
40756;DHT22;26461;45.630;9.418;2023-05-07T02:50:22;19.90;98.00
40756;DHT22;26461;45.630;9.418;2023-05-07T02:53:28;19.90;98.10
40756;DHT22;26461;45.630;9.418;2023-05-07T02:56:39;19.90;98.70
40756;DHT22;26461;45.630;9.418;2023-05-07T02:59:45;19.90;98.50
40756;DHT22;26461;45.630;9.418;2023-05-07T03:02:52;19.80;98.60
40756;DHT22;26461;45.630;9.418;2023-05-07T03:05:58;19.80;98.60
40756;DHT22;26461;45.630;9.418;2023-05-07T03:09:08;19.80;98.60
40756;DHT22;26461;45.630;9.418;2023-05-07T03:12:14;19.80;98.70
40756;DHT22;26461;45.630;9.418;2023-05-07T03:15:25;19.80;98.80
40756;DHT22;26461;45.630;9.418;2023-05-07T03:18:35;19.80;99.00
40756;DHT22;26461;45.630;9.418;2023-05-07T03:21:40;19.70;99.10
40756;DHT22;26461;45.630;9.418;2023-05-07T03:24:47;19.70;99.20
40756;DHT22;26461;45.630;9.418;2023-05-07T03:27:52;19.70;98.90
40756;DHT22;26461;45.630;9.418;2023-05-07T03:31:01;19.70;98.80
40756;DHT22;26461;45.630;9.418;2023-05-07T03:34:12;19.70;98.90
40756;DHT22;26461;45.630;9.418;2023-05-07T03:37:22;19.60;98.80
40756;DHT22;26461;45.630;9.418;2023-05-07T03:40:33;19.50;98.90
40756;DHT22;26461;45.630;9.418;2023-05-07T03:43:40;19.50;99.10
40756;DHT22;26461;45.630;9.418;2023-05-07T03:46:52;19.50;99.30
40756;DHT22;26461;45.630;9.418;2023-05-07T03:50:02;19.40;99.30
40756;DHT22;26461;45.630;9.418;2023-05-07T03:53:13;19.40;99.20
40756;DHT22;26461;45.630;9.418;2023-05-07T03:56:22;19.20;99.10
40756;DHT22;26461;45.630;9.418;2023-05-07T03:59:37;19.20;99.30
40756;DHT22;26461;45.630;9.418;2023-05-07T04:02:47;19.10;99.20
40756;DHT22;26461;45.630;9.418;2023-05-07T04:05:57;19.10;99.20
40756;DHT22;26461;45.630;9.418;2023-05-07T04:09:11;19.10;99.40
40756;DHT22;26461;45.630;9.418;2023-05-07T04:12:26;19.10;99.40
40756;DHT22;26461;45.630;9.418;2023-05-07T04:15:32;19.10;99.50
40756;DHT22;26461;45.630;9.418;2023-05-07T04:18:46;19.20;99.60
40756;DHT22;26461;45.630;9.418;2023-05-07T04:21:56;19.20;99.80
40756;DHT22;26461;45.630;9.418;2023-05-07T04:25:02;19.20;99.80
40756;DHT22;26461;45.630;9.418;2023-05-07T04:28:11;19.20;99.70
40756;DHT22;26461;45.630;9.418;2023-05-07T04:31:26;19.20;99.50
40756;DHT22;26461;45.630;9.418;2023-05-07T04:34:33;19.10;99.40
40756;DHT22;26461;45.630;9.418;2023-05-07T04:37:40;19.10;99.50
40756;DHT22;26461;45.630;9.418;2023-05-07T04:41:17;19.10;99.60
40756;DHT22;26461;45.630;9.418;2023-05-07T04:44:35;19.10;99.80
40756;DHT22;26461;45.630;9.418;2023-05-07T04:47:42;19.10;99.90
40756;DHT22;26461;45.630;9.418;2023-05-07T04:50:48;19.10;99.90
40756;DHT22;26461;45.630;9.418;2023-05-07T04:53:59;19.10;99.90
40756;DHT22;26461;45.630;9.418;2023-05-07T04:57:10;19.00;99.80
40756;DHT22;26461;45.630;9.418;2023-05-07T05:00:25;19.00;99.70
40756;DHT22;26461;45.630;9.418;2023-05-07T05:03:38;19.00;99.80
40756;DHT22;26461;45.630;9.418;2023-05-07T05:06:45;19.00;99.90
40756;DHT22;26461;45.630;9.418;2023-05-07T05:09:52;18.90;99.90
40756;DHT22;26461;45.630;9.418;2023-05-07T05:13:01;18.90;99.90
40756;DHT22;26461;45.630;9.418;2023-05-07T05:16:09;18.90;99.90
40756;DHT22;26461;45.630;9.418;2023-05-07T05:19:23;18.80;99.90
40756;DHT22;26461;45.630;9.418;2023-05-07T05:22:32;18.70;99.90
40756;DHT22;26461;45.630;9.418;2023-05-07T05:25:43;18.70;99.90
40756;DHT22;26461;45.630;9.418;2023-05-07T05:28:53;18.70;99.90
40756;DHT22;26461;45.630;9.418;2023-05-07T05:32:02;18.60;99.90
40756;DHT22;26461;45.630;9.418;2023-05-07T05:35:09;18.60;99.90
40756;DHT22;26461;45.630;9.418;2023-05-07T05:38:21;18.50;99.90
40756;DHT22;26461;45.630;9.418;2023-05-07T05:41:39;18.50;99.90
40756;DHT22;26461;45.630;9.418;2023-05-07T05:44:51;18.50;99.90
40756;DHT22;26461;45.630;9.418;2023-05-07T05:47:56;18.60;99.90
40756;DHT22;26461;45.630;9.418;2023-05-07T05:51:08;18.60;99.90
40756;DHT22;26461;45.630;9.418;2023-05-07T05:54:18;18.60;99.90
40756;DHT22;26461;45.630;9.418;2023-05-07T05:57:28;18.60;99.90
40756;DHT22;26461;45.630;9.418;2023-05-07T06:00:38;18.70;99.90
40756;DHT22;26461;45.630;9.418;2023-05-07T06:03:45;18.70;99.90
40756;DHT22;26461;45.630;9.418;2023-05-07T06:06:52;18.70;99.90
40756;DHT22;26461;45.630;9.418;2023-05-07T06:09:57;18.70;99.90
40756;DHT22;26461;45.630;9.418;2023-05-07T06:13:10;18.80;99.90
40756;DHT22;26461;45.630;9.418;2023-05-07T06:16:17;18.80;99.90
40756;DHT22;26461;45.630;9.418;2023-05-07T06:19:28;18.80;99.90
40756;DHT22;26461;45.630;9.418;2023-05-07T06:22:35;18.90;99.90
40756;DHT22;26461;45.630;9.418;2023-05-07T06:25:49;18.90;99.90
40756;DHT22;26461;45.630;9.418;2023-05-07T06:28:57;19.00;99.90
40756;DHT22;26461;45.630;9.418;2023-05-07T06:32:11;19.00;99.90
40756;DHT22;26461;45.630;9.418;2023-05-07T06:35:23;19.00;99.90
40756;DHT22;26461;45.630;9.418;2023-05-07T06:38:34;19.10;99.90
40756;DHT22;26461;45.630;9.418;2023-05-07T06:41:44;19.20;99.90
40756;DHT22;26461;45.630;9.418;2023-05-07T06:45:00;19.20;99.90
40756;DHT22;26461;45.630;9.418;2023-05-07T06:48:11;19.30;99.90
40756;DHT22;26461;45.630;9.418;2023-05-07T06:51:27;19.40;99.90
40756;DHT22;26461;45.630;9.418;2023-05-07T06:54:36;19.40;99.90
40756;DHT22;26461;45.630;9.418;2023-05-07T06:57:42;19.50;99.90
40756;DHT22;26461;45.630;9.418;2023-05-07T07:00:48;19.50;99.90
40756;DHT22;26461;45.630;9.418;2023-05-07T07:03:54;19.60;99.90
40756;DHT22;26461;45.630;9.418;2023-05-07T07:07:07;19.60;99.90
40756;DHT22;26461;45.630;9.418;2023-05-07T07:10:13;19.70;99.90
40756;DHT22;26461;45.630;9.418;2023-05-07T07:13:19;19.80;99.90
40756;DHT22;26461;45.630;9.418;2023-05-07T07:16:24;19.80;99.90
40756;DHT22;26461;45.630;9.418;2023-05-07T07:19:29;19.80;99.90
40756;DHT22;26461;45.630;9.418;2023-05-07T07:22:36;19.80;99.90
40756;DHT22;26461;45.630;9.418;2023-05-07T07:25:41;19.90;99.90
40756;DHT22;26461;45.630;9.418;2023-05-07T07:28:48;19.80;99.90
40756;DHT22;26461;45.630;9.418;2023-05-07T07:31:56;19.90;99.90
40756;DHT22;26461;45.630;9.418;2023-05-07T07:35:07;19.90;99.90
40756;DHT22;26461;45.630;9.418;2023-05-07T07:38:14;20.00;99.90
40756;DHT22;26461;45.630;9.418;2023-05-07T07:41:24;20.00;99.90
40756;DHT22;26461;45.630;9.418;2023-05-07T07:44:30;20.00;99.90
40756;DHT22;26461;45.630;9.418;2023-05-07T07:47:45;20.00;99.90
40756;DHT22;26461;45.630;9.418;2023-05-07T07:50:50;20.00;99.90
40756;DHT22;26461;45.630;9.418;2023-05-07T07:54:01;20.00;99.90
40756;DHT22;26461;45.630;9.418;2023-05-07T07:57:13;20.00;99.90
40756;DHT22;26461;45.630;9.418;2023-05-07T08:00:19;20.10;99.90
40756;DHT22;26461;45.630;9.418;2023-05-07T08:03:30;20.00;99.90
40756;DHT22;26461;45.630;9.418;2023-05-07T08:06:42;20.10;99.90
40756;DHT22;26461;45.630;9.418;2023-05-07T08:09:48;20.10;99.90
40756;DHT22;26461;45.630;9.418;2023-05-07T08:13:02;20.20;99.90
40756;DHT22;26461;45.630;9.418;2023-05-07T08:16:15;20.20;99.90
40756;DHT22;26461;45.630;9.418;2023-05-07T08:19:21;20.30;99.90
40756;DHT22;26461;45.630;9.418;2023-05-07T08:22:35;20.30;99.90
40756;DHT22;26461;45.630;9.418;2023-05-07T08:25:42;20.40;99.90
40756;DHT22;26461;45.630;9.418;2023-05-07T08:28:49;20.50;99.90
40756;DHT22;26461;45.630;9.418;2023-05-07T08:32:00;20.50;99.90
40756;DHT22;26461;45.630;9.418;2023-05-07T08:35:11;20.60;99.90
40756;DHT22;26461;45.630;9.418;2023-05-07T08:38:21;20.60;99.90
40756;DHT22;26461;45.630;9.418;2023-05-07T08:41:27;20.70;99.90
40756;DHT22;26461;45.630;9.418;2023-05-07T08:44:34;20.70;99.90
40756;DHT22;26461;45.630;9.418;2023-05-07T08:47:48;20.80;99.90
40756;DHT22;26461;45.630;9.418;2023-05-07T08:50:59;20.80;99.90
40756;DHT22;26461;45.630;9.418;2023-05-07T08:54:05;20.90;99.90
40756;DHT22;26461;45.630;9.418;2023-05-07T08:57:16;20.90;99.90
40756;DHT22;26461;45.630;9.418;2023-05-07T09:00:27;21.00;99.90
40756;DHT22;26461;45.630;9.418;2023-05-07T09:03:35;21.10;99.20
40756;DHT22;26461;45.630;9.418;2023-05-07T09:06:42;21.10;99.40
40756;DHT22;26461;45.630;9.418;2023-05-07T09:09:50;21.20;99.30
40756;DHT22;26461;45.630;9.418;2023-05-07T09:12:55;21.20;99.40
40756;DHT22;26461;45.630;9.418;2023-05-07T09:16:10;21.20;99.60
40756;DHT22;26461;45.630;9.418;2023-05-07T09:19:25;21.30;99.00
40756;DHT22;26461;45.630;9.418;2023-05-07T09:22:33;21.30;98.50
40756;DHT22;26461;45.630;9.418;2023-05-07T09:25:43;21.40;98.40
40756;DHT22;26461;45.630;9.418;2023-05-07T09:28:55;21.40;98.40
40756;DHT22;26461;45.630;9.418;2023-05-07T09:32:02;21.40;98.90
40756;DHT22;26461;45.630;9.418;2023-05-07T09:35:15;21.50;98.90
40756;DHT22;26461;45.630;9.418;2023-05-07T09:38:26;21.60;98.90
40756;DHT22;26461;45.630;9.418;2023-05-07T09:41:44;21.70;98.90
40756;DHT22;26461;45.630;9.418;2023-05-07T09:44:56;21.80;98.80
40756;DHT22;26461;45.630;9.418;2023-05-07T09:48:08;21.80;98.40
40756;DHT22;26461;45.630;9.418;2023-05-07T09:51:34;21.90;96.90
40756;DHT22;26461;45.630;9.418;2023-05-07T09:54:50;21.90;97.10
40756;DHT22;26461;45.630;9.418;2023-05-07T09:57:59;22.00;97.30
40756;DHT22;26461;45.630;9.418;2023-05-07T10:01:13;22.20;97.60
40756;DHT22;26461;45.630;9.418;2023-05-07T10:04:21;22.30;97.20
40756;DHT22;26461;45.630;9.418;2023-05-07T10:07:27;22.30;97.20
40756;DHT22;26461;45.630;9.418;2023-05-07T10:10:37;22.30;96.20
40756;DHT22;26461;45.630;9.418;2023-05-07T10:13:48;22.30;96.60
40756;DHT22;26461;45.630;9.418;2023-05-07T10:16:54;22.40;96.30
40756;DHT22;26461;45.630;9.418;2023-05-07T10:20:08;22.50;95.70
40756;DHT22;26461;45.630;9.418;2023-05-07T10:23:23;22.50;95.80
40756;DHT22;26461;45.630;9.418;2023-05-07T10:26:35;22.60;95.40
40756;DHT22;26461;45.630;9.418;2023-05-07T10:33:03;22.60;95.80
40756;DHT22;26461;45.630;9.418;2023-05-07T10:36:12;22.60;95.60
40756;DHT22;26461;45.630;9.418;2023-05-07T10:39:23;22.60;95.70
40756;DHT22;26461;45.630;9.418;2023-05-07T10:42:34;22.70;95.80
40756;DHT22;26461;45.630;9.418;2023-05-07T10:56:41;22.80;95.60
40756;DHT22;26461;45.630;9.418;2023-05-07T10:59:59;22.90;96.00
40756;DHT22;26461;45.630;9.418;2023-05-07T11:03:11;22.90;95.90
40756;DHT22;26461;45.630;9.418;2023-05-07T11:06:29;22.90;96.20
40756;DHT22;26461;45.630;9.418;2023-05-07T11:13:01;23.00;95.90
40756;DHT22;26461;45.630;9.418;2023-05-07T11:16:23;23.00;95.80
40756;DHT22;26461;45.630;9.418;2023-05-07T11:19:51;23.00;95.60
40756;DHT22;26461;45.630;9.418;2023-05-07T11:27:04;23.10;96.00
40756;DHT22;26461;45.630;9.418;2023-05-07T11:30:17;23.10;95.60
40756;DHT22;26461;45.630;9.418;2023-05-07T11:33:30;23.10;95.80
40756;DHT22;26461;45.630;9.418;2023-05-07T11:36:43;23.10;96.00
40756;DHT22;26461;45.630;9.418;2023-05-07T11:40:03;23.20;96.00
40756;DHT22;26461;45.630;9.418;2023-05-07T11:43:11;23.20;96.00
40756;DHT22;26461;45.630;9.418;2023-05-07T11:46:21;23.20;95.90
40756;DHT22;26461;45.630;9.418;2023-05-07T11:49:32;23.30;95.80
40756;DHT22;26461;45.630;9.418;2023-05-07T11:52:37;23.30;95.90
40756;DHT22;26461;45.630;9.418;2023-05-07T11:55:44;23.30;95.80
40756;DHT22;26461;45.630;9.418;2023-05-07T11:58:54;23.30;95.70
40756;DHT22;26461;45.630;9.418;2023-05-07T12:02:06;23.40;95.80
40756;DHT22;26461;45.630;9.418;2023-05-07T12:05:12;23.40;96.00
40756;DHT22;26461;45.630;9.418;2023-05-07T12:08:18;23.40;96.40
40756;DHT22;26461;45.630;9.418;2023-05-07T12:11:25;23.50;95.80
40756;DHT22;26461;45.630;9.418;2023-05-07T12:14:30;23.60;96.10
40756;DHT22;26461;45.630;9.418;2023-05-07T12:17:41;23.70;96.50
40756;DHT22;26461;45.630;9.418;2023-05-07T12:20:46;23.70;96.60
40756;DHT22;26461;45.630;9.418;2023-05-07T12:23:57;23.80;96.30
40756;DHT22;26461;45.630;9.418;2023-05-07T12:27:03;24.00;95.90
40756;DHT22;26461;45.630;9.418;2023-05-07T12:30:14;24.00;95.60
40756;DHT22;26461;45.630;9.418;2023-05-07T12:33:26;24.10;95.20
40756;DHT22;26461;45.630;9.418;2023-05-07T12:36:38;24.10;95.10
40756;DHT22;26461;45.630;9.418;2023-05-07T12:39:47;24.20;94.90
40756;DHT22;26461;45.630;9.418;2023-05-07T12:42:59;24.30;94.50
40756;DHT22;26461;45.630;9.418;2023-05-07T12:46:06;24.30;94.40
40756;DHT22;26461;45.630;9.418;2023-05-07T12:49:12;24.40;94.30
40756;DHT22;26461;45.630;9.418;2023-05-07T12:52:22;24.40;94.50
40756;DHT22;26461;45.630;9.418;2023-05-07T12:55:29;24.50;93.80
40756;DHT22;26461;45.630;9.418;2023-05-07T12:58:35;24.50;93.80
40756;DHT22;26461;45.630;9.418;2023-05-07T13:01:43;24.50;93.60
40756;DHT22;26461;45.630;9.418;2023-05-07T13:04:49;24.50;93.70
40756;DHT22;26461;45.630;9.418;2023-05-07T13:08:00;24.60;93.40
40756;DHT22;26461;45.630;9.418;2023-05-07T13:11:07;24.60;93.20
40756;DHT22;26461;45.630;9.418;2023-05-07T13:14:12;24.60;93.00
40756;DHT22;26461;45.630;9.418;2023-05-07T13:17:17;24.60;93.20
40756;DHT22;26461;45.630;9.418;2023-05-07T13:20:23;24.60;93.30
40756;DHT22;26461;45.630;9.418;2023-05-07T13:23:34;24.60;93.10
40756;DHT22;26461;45.630;9.418;2023-05-07T13:26:39;24.70;93.10
40756;DHT22;26461;45.630;9.418;2023-05-07T13:29:45;24.70;92.90
40756;DHT22;26461;45.630;9.418;2023-05-07T13:32:56;24.90;91.80
40756;DHT22;26461;45.630;9.418;2023-05-07T13:36:02;25.00;91.60
40756;DHT22;26461;45.630;9.418;2023-05-07T13:39:10;25.10;91.40
40756;DHT22;26461;45.630;9.418;2023-05-07T13:42:17;25.30;91.30
40756;DHT22;26461;45.630;9.418;2023-05-07T13:45:22;25.40;90.80
40756;DHT22;26461;45.630;9.418;2023-05-07T13:48:30;25.60;90.70
40756;DHT22;26461;45.630;9.418;2023-05-07T13:51:40;25.70;90.60
40756;DHT22;26461;45.630;9.418;2023-05-07T13:54:54;26.00;90.20
40756;DHT22;26461;45.630;9.418;2023-05-07T13:58:01;26.10;89.00
40756;DHT22;26461;45.630;9.418;2023-05-07T14:01:12;26.20;88.70
40756;DHT22;26461;45.630;9.418;2023-05-07T14:04:18;26.40;87.90
40756;DHT22;26461;45.630;9.418;2023-05-07T14:07:24;26.40;87.00
40756;DHT22;26461;45.630;9.418;2023-05-07T14:10:34;26.50;87.30
40756;DHT22;26461;45.630;9.418;2023-05-07T14:13:42;26.60;84.90
40756;DHT22;26461;45.630;9.418;2023-05-07T14:16:53;26.80;85.30
40756;DHT22;26461;45.630;9.418;2023-05-07T14:19:58;26.90;84.00
40756;DHT22;26461;45.630;9.418;2023-05-07T14:23:09;27.00;82.20
40756;DHT22;26461;45.630;9.418;2023-05-07T14:26:20;27.10;80.80
40756;DHT22;26461;45.630;9.418;2023-05-07T14:29:25;27.30;79.20
40756;DHT22;26461;45.630;9.418;2023-05-07T14:32:31;27.40;79.80
40756;DHT22;26461;45.630;9.418;2023-05-07T14:35:36;27.60;80.00
40756;DHT22;26461;45.630;9.418;2023-05-07T14:38:42;27.70;80.10
40756;DHT22;26461;45.630;9.418;2023-05-07T14:41:48;27.70;78.30
40756;DHT22;26461;45.630;9.418;2023-05-07T14:44:53;27.80;77.50
40756;DHT22;26461;45.630;9.418;2023-05-07T14:47:59;27.90;76.80
40756;DHT22;26461;45.630;9.418;2023-05-07T14:51:09;28.10;76.30
40756;DHT22;26461;45.630;9.418;2023-05-07T14:54:15;28.20;73.80
40756;DHT22;26461;45.630;9.418;2023-05-07T14:57:21;28.30;74.10
40756;DHT22;26461;45.630;9.418;2023-05-07T15:00:30;28.40;72.20
40756;DHT22;26461;45.630;9.418;2023-05-07T15:03:39;28.40;70.60
40756;DHT22;26461;45.630;9.418;2023-05-07T15:06:48;28.40;68.80
40756;DHT22;26461;45.630;9.418;2023-05-07T15:09:53;28.30;69.80
40756;DHT22;26461;45.630;9.418;2023-05-07T15:12:59;28.20;68.30
40756;DHT22;26461;45.630;9.418;2023-05-07T15:16:09;28.10;68.20
40756;DHT22;26461;45.630;9.418;2023-05-07T15:19:15;27.90;68.10
40756;DHT22;26461;45.630;9.418;2023-05-07T15:22:21;27.70;69.00
40756;DHT22;26461;45.630;9.418;2023-05-07T15:25:31;27.50;69.70
40756;DHT22;26461;45.630;9.418;2023-05-07T15:28:38;27.40;70.10
40756;DHT22;26461;45.630;9.418;2023-05-07T15:31:44;27.20;70.80
40756;DHT22;26461;45.630;9.418;2023-05-07T15:34:51;27.10;70.90
40756;DHT22;26461;45.630;9.418;2023-05-07T15:38:00;27.00;72.90
40756;DHT22;26461;45.630;9.418;2023-05-07T15:41:11;26.90;73.60
40756;DHT22;26461;45.630;9.418;2023-05-07T15:44:16;26.90;74.60
40756;DHT22;26461;45.630;9.418;2023-05-07T15:47:27;26.80;71.40
40756;DHT22;26461;45.630;9.418;2023-05-07T15:50:37;26.70;73.10
40756;DHT22;26461;45.630;9.418;2023-05-07T15:53:44;26.70;74.90
40756;DHT22;26461;45.630;9.418;2023-05-07T15:56:54;26.70;74.60
40756;DHT22;26461;45.630;9.418;2023-05-07T16:00:00;26.80;74.30
40756;DHT22;26461;45.630;9.418;2023-05-07T16:03:16;26.90;71.80
40756;DHT22;26461;45.630;9.418;2023-05-07T16:06:23;26.90;71.50
40756;DHT22;26461;45.630;9.418;2023-05-07T16:09:29;27.00;72.70
40756;DHT22;26461;45.630;9.418;2023-05-07T16:12:37;27.00;72.90
40756;DHT22;26461;45.630;9.418;2023-05-07T16:15:42;27.00;72.50
40756;DHT22;26461;45.630;9.418;2023-05-07T16:18:47;27.10;72.50
40756;DHT22;26461;45.630;9.418;2023-05-07T16:21:52;27.20;73.10
40756;DHT22;26461;45.630;9.418;2023-05-07T16:25:03;27.30;71.20
40756;DHT22;26461;45.630;9.418;2023-05-07T16:28:09;27.20;71.10
40756;DHT22;26461;45.630;9.418;2023-05-07T16:31:19;27.10;71.50
40756;DHT22;26461;45.630;9.418;2023-05-07T16:34:28;27.00;70.60
40756;DHT22;26461;45.630;9.418;2023-05-07T16:37:42;26.90;70.20
40756;DHT22;26461;45.630;9.418;2023-05-07T16:40:54;26.80;70.40
40756;DHT22;26461;45.630;9.418;2023-05-07T16:43:59;26.60;71.10
40756;DHT22;26461;45.630;9.418;2023-05-07T16:47:06;26.60;71.20
40756;DHT22;26461;45.630;9.418;2023-05-07T16:50:17;26.50;71.20
40756;DHT22;26461;45.630;9.418;2023-05-07T16:53:30;26.40;71.80
40756;DHT22;26461;45.630;9.418;2023-05-07T16:56:43;26.20;72.80
40756;DHT22;26461;45.630;9.418;2023-05-07T16:59:49;26.10;72.60
40756;DHT22;26461;45.630;9.418;2023-05-07T17:02:57;26.10;73.00
40756;DHT22;26461;45.630;9.418;2023-05-07T17:06:03;26.00;73.20
40756;DHT22;26461;45.630;9.418;2023-05-07T17:09:09;25.90;73.50
40756;DHT22;26461;45.630;9.418;2023-05-07T17:12:14;25.80;73.60
40756;DHT22;26461;45.630;9.418;2023-05-07T17:15:20;25.80;74.50
40756;DHT22;26461;45.630;9.418;2023-05-07T17:18:25;25.70;74.20
40756;DHT22;26461;45.630;9.418;2023-05-07T17:21:30;25.60;74.70
40756;DHT22;26461;45.630;9.418;2023-05-07T17:24:35;25.60;74.90
40756;DHT22;26461;45.630;9.418;2023-05-07T17:27:41;25.50;75.10
40756;DHT22;26461;45.630;9.418;2023-05-07T17:30:46;25.50;75.40
40756;DHT22;26461;45.630;9.418;2023-05-07T17:33:57;25.50;75.90
40756;DHT22;26461;45.630;9.418;2023-05-07T17:37:08;25.40;76.30
40756;DHT22;26461;45.630;9.418;2023-05-07T17:40:13;25.40;77.60
40756;DHT22;26461;45.630;9.418;2023-05-07T17:43:24;25.30;77.80
40756;DHT22;26461;45.630;9.418;2023-05-07T17:46:34;25.20;77.60
40756;DHT22;26461;45.630;9.418;2023-05-07T17:49:39;25.20;77.20
40756;DHT22;26461;45.630;9.418;2023-05-07T17:52:45;25.10;77.40
40756;DHT22;26461;45.630;9.418;2023-05-07T17:55:56;25.00;77.50
40756;DHT22;26461;45.630;9.418;2023-05-07T17:59:01;24.90;77.80
40756;DHT22;26461;45.630;9.418;2023-05-07T18:02:11;24.80;78.60
40756;DHT22;26461;45.630;9.418;2023-05-07T18:05:17;24.70;78.90
40756;DHT22;26461;45.630;9.418;2023-05-07T18:08:27;24.60;78.90
40756;DHT22;26461;45.630;9.418;2023-05-07T18:11:37;24.60;79.30
40756;DHT22;26461;45.630;9.418;2023-05-07T18:14:47;24.60;79.40
40756;DHT22;26461;45.630;9.418;2023-05-07T18:17:58;24.50;79.60
40756;DHT22;26461;45.630;9.418;2023-05-07T18:21:03;24.50;80.20
40756;DHT22;26461;45.630;9.418;2023-05-07T18:24:09;24.50;80.50
40756;DHT22;26461;45.630;9.418;2023-05-07T18:27:15;24.40;80.50
40756;DHT22;26461;45.630;9.418;2023-05-07T18:30:25;24.40;80.90
40756;DHT22;26461;45.630;9.418;2023-05-07T18:33:31;24.40;81.60
40756;DHT22;26461;45.630;9.418;2023-05-07T18:36:36;24.40;82.50
40756;DHT22;26461;45.630;9.418;2023-05-07T18:39:42;24.30;83.60
40756;DHT22;26461;45.630;9.418;2023-05-07T18:42:47;24.30;84.30
40756;DHT22;26461;45.630;9.418;2023-05-07T18:45:53;24.30;85.20
40756;DHT22;26461;45.630;9.418;2023-05-07T18:48:58;24.20;86.00
40756;DHT22;26461;45.630;9.418;2023-05-07T18:52:03;24.10;86.80
40756;DHT22;26461;45.630;9.418;2023-05-07T18:55:14;24.10;87.40
40756;DHT22;26461;45.630;9.418;2023-05-07T18:58:26;24.10;87.90
40756;DHT22;26461;45.630;9.418;2023-05-07T19:01:36;24.10;88.20
40756;DHT22;26461;45.630;9.418;2023-05-07T19:04:46;24.00;88.40
40756;DHT22;26461;45.630;9.418;2023-05-07T19:07:52;24.00;88.40
40756;DHT22;26461;45.630;9.418;2023-05-07T19:10:57;24.00;88.80
40756;DHT22;26461;45.630;9.418;2023-05-07T19:14:03;23.90;89.10
40756;DHT22;26461;45.630;9.418;2023-05-07T19:17:14;23.90;89.40
40756;DHT22;26461;45.630;9.418;2023-05-07T19:20:28;23.90;89.90
40756;DHT22;26461;45.630;9.418;2023-05-07T19:23:39;23.80;90.40
40756;DHT22;26461;45.630;9.418;2023-05-07T19:26:52;23.90;90.70
40756;DHT22;26461;45.630;9.418;2023-05-07T19:29:58;23.70;90.80
40756;DHT22;26461;45.630;9.418;2023-05-07T19:33:09;23.70;90.90
40756;DHT22;26461;45.630;9.418;2023-05-07T19:36:20;23.60;90.80
40756;DHT22;26461;45.630;9.418;2023-05-07T19:39:38;23.50;90.20
40756;DHT22;26461;45.630;9.418;2023-05-07T19:42:53;23.40;90.10
40756;DHT22;26461;45.630;9.418;2023-05-07T19:46:05;23.40;90.20
40756;DHT22;26461;45.630;9.418;2023-05-07T19:49:13;23.30;90.40
40756;DHT22;26461;45.630;9.418;2023-05-07T19:52:19;23.20;90.60
40756;DHT22;26461;45.630;9.418;2023-05-07T19:55:25;23.20;90.80
40756;DHT22;26461;45.630;9.418;2023-05-07T19:58:41;23.20;91.10
40756;DHT22;26461;45.630;9.418;2023-05-07T20:01:51;23.10;91.30
40756;DHT22;26461;45.630;9.418;2023-05-07T20:05:17;23.10;91.40
40756;DHT22;26461;45.630;9.418;2023-05-07T20:08:27;23.10;91.60
40756;DHT22;26461;45.630;9.418;2023-05-07T20:11:36;23.00;91.70
40756;DHT22;26461;45.630;9.418;2023-05-07T20:14:44;22.70;91.50
40756;DHT22;26461;45.630;9.418;2023-05-07T20:18:11;22.50;91.50